createdAt,value
2023-04-02T00:00:21.874Z,99.99
2023-04-02T00:02:59.911Z,98.80
2023-04-02T00:05:55.869Z,98.31
2023-04-02T00:08:26.944Z,97.88
2023-04-02T00:10:57.388Z,98.87
2023-04-02T00:13:32.126Z,98.66
2023-04-02T00:16:03.171Z,97.71
2023-04-02T00:18:33.563Z,97.64
2023-04-02T00:21:11.588Z,97.80
2023-04-02T00:23:41.191Z,96.55
2023-04-02T00:26:23.029Z,97.77
2023-04-02T00:28:51.995Z,98.00
2023-04-02T00:31:21.463Z,98.05
2023-04-02T00:33:50.386Z,96.75
2023-04-02T00:36:22.475Z,97.48
2023-04-02T00:38:50.669Z,98.77
2023-04-02T00:41:23.480Z,97.67
2023-04-02T00:43:54.864Z,96.26
2023-04-02T00:46:30.285Z,96.93
2023-04-02T00:49:02.600Z,97.40
2023-04-02T00:51:36.473Z,98.83
2023-04-02T00:54:07.573Z,99.32
2023-04-02T00:56:41.881Z,98.68
2023-04-02T00:59:20.674Z,98.23
2023-04-02T01:01:54.337Z,97.08
2023-04-02T01:04:34.094Z,98.20
2023-04-02T01:07:08.597Z,98.78
2023-04-02T01:10:02.344Z,97.11
2023-04-02T01:12:41.521Z,98.37
2023-04-02T01:15:14.963Z,99.19
2023-04-02T01:17:58.520Z,97.80
2023-04-02T01:20:52.623Z,97.46
2023-04-02T01:23:29.295Z,97.19
2023-04-02T01:26:07.409Z,98.39
2023-04-02T01:28:57.987Z,96.96
2023-04-02T01:31:27.419Z,97.47
2023-04-02T01:33:56.260Z,96.90
2023-04-02T01:36:34.985Z,97.96
2023-04-02T01:39:12.305Z,98.21
2023-04-02T01:41:45.255Z,100.00
2023-04-02T01:44:20.946Z,99.40
2023-04-02T01:46:50.578Z,98.28
2023-04-02T01:49:22.085Z,98.84
2023-04-02T01:51:55.355Z,98.71
2023-04-02T01:54:24.750Z,99.90
2023-04-02T01:56:52.915Z,99.21
2023-04-02T01:59:24.242Z,100.00
2023-04-02T02:02:02.639Z,99.56
2023-04-02T02:04:33.365Z,99.13
2023-04-02T02:07:02.605Z,98.14
2023-04-02T02:09:35.354Z,97.62
2023-04-02T02:12:04.965Z,97.42
2023-04-02T02:14:34.795Z,98.24
2023-04-02T02:17:04.288Z,96.54
2023-04-02T02:19:36.955Z,98.04
2023-04-02T02:22:13.362Z,96.66
2023-04-02T02:24:43.047Z,95.94
2023-04-02T02:27:44.223Z,96.43
2023-04-02T02:30:18.678Z,96.08
2023-04-02T02:32:54.824Z,95.69
2023-04-02T02:35:27.388Z,94.56
2023-04-02T02:38:02.614Z,96.00
2023-04-02T02:40:35.368Z,95.61
2023-04-02T02:43:09.877Z,96.13
2023-04-02T02:45:42.372Z,96.81
2023-04-02T02:48:14.631Z,96.54
2023-04-02T02:50:43.804Z,94.64
2023-04-02T02:53:20.061Z,94.29
2023-04-02T02:55:50.430Z,95.04
2023-04-02T02:58:27.493Z,94.68
2023-04-02T03:01:18.784Z,96.16
2023-04-02T03:03:48.879Z,94.67
2023-04-02T03:06:20.664Z,94.44
2023-04-02T03:09:02.296Z,94.58
2023-04-02T03:11:38.304Z,93.13
2023-04-02T03:14:19.208Z,94.40
2023-04-02T03:16:53.489Z,93.73
2023-04-02T03:19:32.629Z,93.30
2023-04-02T03:22:07.885Z,93.09
2023-04-02T03:24:47.060Z,92.12
2023-04-02T03:27:21.689Z,93.17
2023-04-02T03:29:59.645Z,91.81
2023-04-02T03:32:33.618Z,92.84
2023-04-02T03:35:06.463Z,92.03
2023-04-02T03:37:42.112Z,92.24
2023-04-02T03:40:16.851Z,91.37
2023-04-02T03:42:49.731Z,90.79
2023-04-02T03:45:22.276Z,91.39
2023-04-02T03:47:57.559Z,91.88
2023-04-02T03:50:31.621Z,90.65
2023-04-02T03:53:03.171Z,90.65
2023-04-02T03:55:36.973Z,90.58
2023-04-02T03:58:12.226Z,91.00
2023-04-02T04:00:47.629Z,92.17
2023-04-02T04:03:21.618Z,92.17
2023-04-02T04:05:53.588Z,93.35
2023-04-02T04:08:26.351Z,93.26
2023-04-02T04:10:57.034Z,94.21
2023-04-02T04:13:32.888Z,95.40
2023-04-02T04:16:06.269Z,94.39
2023-04-02T04:18:46.714Z,94.80
2023-04-02T04:21:29.787Z,95.53
2023-04-02T04:24:04.777Z,94.91
2023-04-02T04:26:42.339Z,95.29
2023-04-02T04:29:28.245Z,94.92
2023-04-02T04:32:01.532Z,94.35
2023-04-02T04:34:46.873Z,93.16
2023-04-02T04:37:25.100Z,93.83
2023-04-02T04:39:58.776Z,93.43
2023-04-02T04:42:32.256Z,93.06
2023-04-02T04:45:18.748Z,92.57
2023-04-02T04:47:54.836Z,93.66
2023-04-02T04:50:32.168Z,93.65
2023-04-02T04:53:07.755Z,92.81
2023-04-02T04:55:39.668Z,93.44
2023-04-02T04:58:19.684Z,91.98
2023-04-02T05:00:57.550Z,92.68
2023-04-02T05:03:32.134Z,91.39
2023-04-02T05:06:12.832Z,91.91
2023-04-02T05:08:46.303Z,90.97
2023-04-02T05:11:21.925Z,91.08
2023-04-02T05:13:54.474Z,88.21
2023-04-02T05:16:27.384Z,90.32
2023-04-02T05:19:03.677Z,89.95
2023-04-02T05:21:43.341Z,88.03
2023-04-02T05:24:34.325Z,90.18
2023-04-02T05:27:07.546Z,88.66
2023-04-02T05:29:39.808Z,88.23
2023-04-02T05:32:14.781Z,86.57
2023-04-02T05:34:48.026Z,87.68
2023-04-02T05:37:21.252Z,86.41
2023-04-02T05:39:53.276Z,87.04
2023-04-02T05:42:24.704Z,86.25
2023-04-02T05:45:09.467Z,87.87
2023-04-02T05:47:44.009Z,86.13
2023-04-02T05:50:26.133Z,85.64
2023-04-02T05:53:12.897Z,86.36
2023-04-02T05:55:52.922Z,85.61
2023-04-02T05:58:36.011Z,84.67
2023-04-02T06:01:23.558Z,85.15
2023-04-02T06:04:01.046Z,85.53
2023-04-02T06:06:46.138Z,85.31
2023-04-02T06:09:20.943Z,84.20
2023-04-02T06:12:00.448Z,85.68
2023-04-02T06:14:31.528Z,86.92
2023-04-02T06:16:59.461Z,85.53
2023-04-02T06:19:32.876Z,84.21
2023-04-02T06:22:11.584Z,84.13
2023-04-02T06:24:42.392Z,85.87
2023-04-02T06:27:16.171Z,84.56
2023-04-02T06:29:47.380Z,83.98
2023-04-02T06:32:24.006Z,85.95
2023-04-02T06:34:52.613Z,83.69
2023-04-02T06:37:27.799Z,85.26
2023-04-02T06:40:30.040Z,85.54
2023-04-02T06:43:00.253Z,84.30
2023-04-02T06:45:42.894Z,83.12
2023-04-02T06:48:33.237Z,84.64
2023-04-02T06:51:07.100Z,84.62
2023-04-02T06:53:37.866Z,85.22
2023-04-02T06:56:19.880Z,82.26
2023-04-02T06:58:47.834Z,80.78
2023-04-02T07:01:21.479Z,82.00
2023-04-02T07:03:49.695Z,82.16
2023-04-02T07:06:27.286Z,83.04
2023-04-02T07:08:59.164Z,83.08
2023-04-02T07:11:28.569Z,82.97
2023-04-02T07:13:59.934Z,83.16
2023-04-02T07:16:30.282Z,80.74
2023-04-02T07:18:59.638Z,82.12
2023-04-02T07:21:29.701Z,80.89
2023-04-02T07:23:57.854Z,81.34
2023-04-02T07:26:30.074Z,80.50
2023-04-02T07:28:58.331Z,79.61
2023-04-02T07:31:29.143Z,81.43
2023-04-02T07:34:00.137Z,81.03
2023-04-02T07:36:30.570Z,79.34
2023-04-02T07:38:59.672Z,78.96
2023-04-02T07:41:27.568Z,80.15
2023-04-02T07:43:56.788Z,80.03
2023-04-02T07:46:25.984Z,78.26
2023-04-02T07:48:54.431Z,78.91
2023-04-02T07:51:24.417Z,78.93
2023-04-02T07:53:55.745Z,78.89
2023-04-02T07:56:25.945Z,78.15
2023-04-02T07:58:54.000Z,79.22
2023-04-02T08:01:25.712Z,77.61
2023-04-02T08:03:54.833Z,78.45
2023-04-02T08:06:23.842Z,77.26
2023-04-02T08:08:52.055Z,78.28
2023-04-02T08:11:19.997Z,76.34
2023-04-02T08:13:48.051Z,77.16
2023-04-02T08:16:16.858Z,76.66
2023-04-02T08:18:47.540Z,77.78
2023-04-02T08:21:16.692Z,75.84
2023-04-02T08:23:44.752Z,76.24
2023-04-02T08:26:18.212Z,75.79
2023-04-02T08:28:46.031Z,76.39
2023-04-02T08:31:13.918Z,76.46
2023-04-02T08:33:41.669Z,75.94
2023-04-02T08:36:16.797Z,76.36
2023-04-02T08:38:44.737Z,77.51
2023-04-02T08:41:21.543Z,75.11
2023-04-02T08:44:02.891Z,75.82
2023-04-02T08:46:38.437Z,75.11
2023-04-02T08:49:13.557Z,74.57
2023-04-02T08:51:43.131Z,75.39
2023-04-02T08:54:27.374Z,75.11
2023-04-02T08:57:00.047Z,75.67
2023-04-02T08:59:33.862Z,76.66
2023-04-02T09:02:15.517Z,74.78
2023-04-02T09:04:43.697Z,73.42
2023-04-02T09:07:16.698Z,74.14
2023-04-02T09:09:48.604Z,73.97
2023-04-02T09:12:19.946Z,71.70
2023-04-02T09:15:00.786Z,72.64
2023-04-02T09:17:31.207Z,73.75
2023-04-02T09:20:09.580Z,72.83
2023-04-02T09:22:38.786Z,71.41
2023-04-02T09:25:14.576Z,71.55
2023-04-02T09:27:42.362Z,72.01
2023-04-02T09:30:24.798Z,72.05
2023-04-02T09:32:54.086Z,74.02
2023-04-02T09:35:26.518Z,71.64
2023-04-02T09:38:18.583Z,70.95
2023-04-02T09:40:50.063Z,71.11
2023-04-02T09:43:20.432Z,71.01
2023-04-02T09:45:58.618Z,70.58
2023-04-02T09:48:30.325Z,71.75
2023-04-02T09:51:13.278Z,71.61
2023-04-02T09:53:43.540Z,74.19
2023-04-02T09:56:17.112Z,72.23
2023-04-02T09:58:47.277Z,73.01
2023-04-02T10:01:29.193Z,70.89
2023-04-02T10:03:59.233Z,73.59
2023-04-02T10:06:29.461Z,70.37
2023-04-02T10:08:58.699Z,72.89
2023-04-02T10:11:43.719Z,71.15
2023-04-02T10:14:20.035Z,72.92
2023-04-02T10:16:51.962Z,73.48
2023-04-02T10:19:27.472Z,70.87
2023-04-02T10:21:56.529Z,70.69
2023-04-02T10:24:28.745Z,69.48
2023-04-02T10:27:09.559Z,71.14
2023-04-02T10:29:49.555Z,70.97
2023-04-02T10:32:21.382Z,69.73
2023-04-02T10:34:57.513Z,70.70
2023-04-02T10:38:00.462Z,71.44
2023-04-02T10:40:36.084Z,71.52
2023-04-02T10:43:28.136Z,72.15
2023-04-02T10:46:02.138Z,72.07
2023-04-02T10:48:38.696Z,69.92
2023-04-02T10:51:12.874Z,71.19
2023-04-02T10:53:49.177Z,69.96
2023-04-02T10:56:18.417Z,69.57
2023-04-02T10:58:55.601Z,70.02
2023-04-02T11:01:29.936Z,70.29
2023-04-02T11:04:02.496Z,70.20
2023-04-02T11:06:38.969Z,73.66
2023-04-02T11:09:16.951Z,71.27
2023-04-02T11:11:49.782Z,71.93
2023-04-02T11:14:21.747Z,69.38
2023-04-02T11:16:51.291Z,72.63
2023-04-02T11:19:29.125Z,70.04
2023-04-02T11:22:00.983Z,69.82
2023-04-02T11:24:39.670Z,69.69
2023-04-02T11:27:21.922Z,70.06
2023-04-02T11:29:52.792Z,67.20
2023-04-02T11:32:40.695Z,68.94
2023-04-02T11:35:36.493Z,67.64
2023-04-02T11:38:40.840Z,68.29
2023-04-02T11:41:08.768Z,68.40
2023-04-02T11:43:52.126Z,69.79
2023-04-02T11:46:42.616Z,67.61
2023-04-02T11:49:57.227Z,68.72
2023-04-02T11:52:28.035Z,69.08
2023-04-02T11:55:02.635Z,71.96
2023-04-02T11:57:43.211Z,71.25
2023-04-02T12:00:24.496Z,65.77
2023-04-02T12:03:06.792Z,69.59
2023-04-02T12:05:43.076Z,69.01
2023-04-02T12:08:23.209Z,67.20
2023-04-02T12:10:57.666Z,68.46
2023-04-02T12:13:51.982Z,67.64
2023-04-02T12:16:24.285Z,69.90
2023-04-02T12:18:54.858Z,69.13
2023-04-02T12:21:25.429Z,66.02
2023-04-02T12:23:55.584Z,66.27
2023-04-02T12:26:42.506Z,64.47
2023-04-02T12:29:31.067Z,65.95
2023-04-02T12:32:01.459Z,65.22
2023-04-02T12:34:31.079Z,63.77
2023-04-02T12:37:05.440Z,66.29
2023-04-02T12:39:35.050Z,64.25
2023-04-02T12:42:02.873Z,64.72
2023-04-02T12:44:32.731Z,68.39
2023-04-02T12:47:02.093Z,67.12
2023-04-02T12:49:36.981Z,66.60
2023-04-02T12:52:07.544Z,64.89
2023-04-02T12:54:39.061Z,66.88
2023-04-02T12:57:33.815Z,67.51
2023-04-02T13:00:06.161Z,65.56
2023-04-02T13:02:45.977Z,63.77
2023-04-02T13:05:14.402Z,63.24
2023-04-02T13:07:48.265Z,63.53
2023-04-02T13:10:26.200Z,63.06
2023-04-02T13:12:57.016Z,63.46
2023-04-02T13:15:28.470Z,64.43
2023-04-02T13:18:20.060Z,62.68
2023-04-02T13:20:57.595Z,60.62
2023-04-02T13:23:33.804Z,61.23
2023-04-02T13:26:05.623Z,68.18
2023-04-02T13:28:33.582Z,57.58
2023-04-02T13:31:01.808Z,63.58
2023-04-02T13:33:31.109Z,62.76
2023-04-02T13:35:59.010Z,61.73
2023-04-02T13:38:26.868Z,61.47
2023-04-02T13:40:54.615Z,64.01
2023-04-02T13:43:22.345Z,63.19
2023-04-02T13:45:52.902Z,61.49
2023-04-02T13:48:24.518Z,62.97
2023-04-02T13:50:53.917Z,61.34
2023-04-02T13:53:28.946Z,61.58
2023-04-02T13:55:57.213Z,63.44
2023-04-02T13:58:24.960Z,64.47
2023-04-02T14:00:52.865Z,63.51
2023-04-02T14:03:24.694Z,61.78
2023-04-02T14:06:03.009Z,63.54
2023-04-02T14:08:41.476Z,63.70
2023-04-02T14:11:24.835Z,63.39
2023-04-02T14:14:08.347Z,63.82
2023-04-02T14:17:00.183Z,61.29
2023-04-02T14:19:50.896Z,59.91
2023-04-02T14:22:31.627Z,66.38
2023-04-02T14:25:09.820Z,62.46
2023-04-02T14:27:45.892Z,65.09
2023-04-02T14:30:20.756Z,60.43
2023-04-02T14:32:56.711Z,62.47
2023-04-02T14:35:30.197Z,59.36
2023-04-02T14:38:09.618Z,59.68
2023-04-02T14:40:46.169Z,60.61
2023-04-02T14:43:20.532Z,62.00
2023-04-02T14:45:58.359Z,62.09
2023-04-02T14:48:38.373Z,59.91
2023-04-02T14:51:14.227Z,60.35
2023-04-02T14:53:55.581Z,60.71
2023-04-02T14:56:25.633Z,59.17
2023-04-02T14:59:03.550Z,58.28
2023-04-02T15:01:38.215Z,60.79
2023-04-02T15:04:13.237Z,62.06
2023-04-02T15:06:45.071Z,58.88
2023-04-02T15:09:19.897Z,58.15
2023-04-02T15:11:51.586Z,58.14
2023-04-02T15:14:23.015Z,55.07
2023-04-02T15:16:51.096Z,56.53
2023-04-02T15:19:19.916Z,54.84
2023-04-02T15:22:08.364Z,56.52
2023-04-02T15:24:49.433Z,59.26
2023-04-02T15:27:37.157Z,56.88
2023-04-02T15:30:15.373Z,56.39
2023-04-02T15:32:44.271Z,57.65
2023-04-02T15:35:28.516Z,57.39
2023-04-02T15:38:06.751Z,57.75
2023-04-02T15:40:49.742Z,56.44
2023-04-02T15:43:23.586Z,57.93
2023-04-02T15:45:59.021Z,58.23
2023-04-02T15:48:44.504Z,58.04
2023-04-02T15:51:26.461Z,59.43
2023-04-02T15:54:03.775Z,59.32
2023-04-02T15:56:42.317Z,58.03
2023-04-02T15:59:45.462Z,60.74
2023-04-02T16:02:33.733Z,60.16
2023-04-02T16:05:04.716Z,60.89
2023-04-02T16:07:57.636Z,61.46
2023-04-02T16:10:40.987Z,59.84
2023-04-02T16:13:18.797Z,58.47
2023-04-02T16:15:52.209Z,57.22
2023-04-02T16:18:29.771Z,55.21
2023-04-02T16:21:02.390Z,55.34
2023-04-02T16:23:36.997Z,57.09
2023-04-02T16:26:19.888Z,58.32
2023-04-02T16:28:56.575Z,55.88
2023-04-02T16:31:32.729Z,56.45
2023-04-02T16:34:03.653Z,57.35
2023-04-02T16:36:43.648Z,56.78
2023-04-02T16:39:22.958Z,56.64
2023-04-02T16:42:01.912Z,55.73
2023-04-02T16:44:41.291Z,56.67
2023-04-02T16:47:24.507Z,58.46
2023-04-02T16:49:59.813Z,57.32
2023-04-02T16:52:40.312Z,56.99
2023-04-02T16:55:27.070Z,57.61
2023-04-02T16:58:08.289Z,57.04
2023-04-02T17:00:47.545Z,57.94
2023-04-02T17:03:30.661Z,56.16
2023-04-02T17:06:05.690Z,57.15
2023-04-02T17:08:41.672Z,56.72
2023-04-02T17:11:11.270Z,59.21
2023-04-02T17:13:42.093Z,55.90
2023-04-02T17:16:20.742Z,58.53
2023-04-02T17:18:50.724Z,55.79
2023-04-02T17:21:21.527Z,56.70
2023-04-02T17:23:56.438Z,58.04
2023-04-02T17:26:28.385Z,56.62
2023-04-02T17:28:58.549Z,59.59
2023-04-02T17:31:34.141Z,60.35
2023-04-02T17:34:10.754Z,58.92
2023-04-02T17:36:45.032Z,57.51
2023-04-02T17:39:21.376Z,55.97
2023-04-02T17:41:53.087Z,56.96
2023-04-02T17:44:35.869Z,57.20
2023-04-02T17:47:14.073Z,57.12
2023-04-02T17:49:53.794Z,57.22
2023-04-02T17:52:26.470Z,57.54
2023-04-02T17:55:04.365Z,58.53
2023-04-02T17:57:44.318Z,57.90
2023-04-02T18:00:25.506Z,59.05
2023-04-02T18:03:11.223Z,58.85
2023-04-02T18:05:44.096Z,57.87
2023-04-02T18:08:24.149Z,58.25
2023-04-02T18:11:06.324Z,58.02
2023-04-02T18:13:36.121Z,56.72
2023-04-02T18:16:19.493Z,57.95
2023-04-02T18:19:03.447Z,57.91
2023-04-02T18:21:38.430Z,57.93
2023-04-02T18:24:23.914Z,59.59
2023-04-02T18:26:56.177Z,59.48
2023-04-02T18:29:32.250Z,60.32
2023-04-02T18:32:09.647Z,59.07
2023-04-02T18:35:02.146Z,61.02
2023-04-02T18:37:38.236Z,60.42
2023-04-02T18:40:27.250Z,59.56
2023-04-02T18:43:03.653Z,62.20
2023-04-02T18:45:43.311Z,60.06
2023-04-02T18:48:22.644Z,60.49
2023-04-02T18:50:52.877Z,59.69
2023-04-02T18:53:24.985Z,60.08
2023-04-02T18:55:56.206Z,60.85
2023-04-02T18:58:28.045Z,61.13
2023-04-02T19:00:57.154Z,61.96
2023-04-02T19:03:30.177Z,63.67
2023-04-02T19:06:02.974Z,60.48
2023-04-02T19:08:35.221Z,60.68
2023-04-02T19:11:10.155Z,58.25
2023-04-02T19:13:38.872Z,59.21
2023-04-02T19:16:27.707Z,58.49
2023-04-02T19:19:05.659Z,58.96
2023-04-02T19:21:44.186Z,60.62
2023-04-02T19:24:27.568Z,59.98
2023-04-02T19:26:59.932Z,59.39
2023-04-02T19:29:40.444Z,60.01
2023-04-02T19:32:19.011Z,58.25
2023-04-02T19:34:54.573Z,58.68
2023-04-02T19:37:32.694Z,58.23
2023-04-02T19:40:12.806Z,58.80
2023-04-02T19:42:47.293Z,58.15
2023-04-02T19:45:28.253Z,56.77
2023-04-02T19:47:57.513Z,60.22
2023-04-02T19:50:25.636Z,59.44
2023-04-02T19:52:55.149Z,59.55
2023-04-02T19:55:23.311Z,59.01
2023-04-02T19:57:52.795Z,59.49
2023-04-02T20:00:22.610Z,59.60
2023-04-02T20:02:50.739Z,59.35
2023-04-02T20:05:18.654Z,59.40
2023-04-02T20:07:47.007Z,59.88
2023-04-02T20:10:18.238Z,61.39
2023-04-02T20:12:46.235Z,62.12
2023-04-02T20:15:14.477Z,60.38
2023-04-02T20:17:42.372Z,61.01
2023-04-02T20:20:13.498Z,63.87
2023-04-02T20:22:42.383Z,63.90
2023-04-02T20:25:11.288Z,63.29
2023-04-02T20:27:40.407Z,62.22
2023-04-02T20:30:09.355Z,62.18
2023-04-02T20:32:38.306Z,62.37
2023-04-02T20:35:07.130Z,63.55
2023-04-02T20:37:35.068Z,63.17
2023-04-02T20:40:03.093Z,61.48
2023-04-02T20:42:31.206Z,63.68
2023-04-02T20:45:00.380Z,63.03
2023-04-02T20:47:28.196Z,63.13
2023-04-02T20:49:56.280Z,63.17
2023-04-02T20:52:24.374Z,61.68
2023-04-02T20:54:52.378Z,62.87
2023-04-02T20:57:22.001Z,63.14
2023-04-02T20:59:49.755Z,62.69
2023-04-02T21:02:19.131Z,64.58
2023-04-02T21:04:46.989Z,64.53
2023-04-02T21:07:14.716Z,63.08
2023-04-02T21:09:42.601Z,64.23
2023-04-02T21:12:11.504Z,64.66
2023-04-02T21:14:40.119Z,65.20
2023-04-02T21:17:08.701Z,64.89
2023-04-02T21:19:38.658Z,66.38
2023-04-02T21:22:06.480Z,68.94
2023-04-02T21:24:34.331Z,67.96
2023-04-02T21:27:02.584Z,68.42
2023-04-02T21:29:30.433Z,68.64
2023-04-02T21:31:59.807Z,69.74
2023-04-02T21:34:29.320Z,71.15
2023-04-02T21:36:58.366Z,70.51
2023-04-02T21:39:27.234Z,71.25
2023-04-02T21:41:55.066Z,70.84
2023-04-02T21:44:24.532Z,70.69
2023-04-02T21:46:54.129Z,70.31
2023-04-02T21:49:23.186Z,69.31
2023-04-02T21:51:52.375Z,70.07
2023-04-02T21:54:22.206Z,70.89
2023-04-02T21:56:51.588Z,71.18
2023-04-02T21:59:20.125Z,70.58
2023-04-02T22:01:50.499Z,70.02
2023-04-02T22:04:20.804Z,71.94
2023-04-02T22:06:49.513Z,71.25
2023-04-02T22:09:19.599Z,71.72
2023-04-02T22:11:51.178Z,70.91
2023-04-02T22:14:19.822Z,71.53
2023-04-02T22:16:47.723Z,71.35
2023-04-02T22:19:17.365Z,71.54
2023-04-02T22:21:46.168Z,72.56
2023-04-02T22:24:16.257Z,70.53
2023-04-02T22:26:44.578Z,69.61
2023-04-02T22:29:14.008Z,69.41
2023-04-02T22:31:41.750Z,68.72
2023-04-02T22:34:10.084Z,68.56
2023-04-02T22:36:37.843Z,68.41
2023-04-02T22:39:09.707Z,68.83
2023-04-02T22:41:38.320Z,67.42
2023-04-02T22:44:06.631Z,69.71
2023-04-02T22:46:36.047Z,68.08
2023-04-02T22:49:04.464Z,68.26
2023-04-02T22:51:32.235Z,68.55
2023-04-02T22:53:59.982Z,68.89
2023-04-02T22:56:31.908Z,67.98
2023-04-02T22:59:00.709Z,70.49
2023-04-02T23:01:32.101Z,68.42
2023-04-02T23:04:01.384Z,69.14
2023-04-02T23:06:29.530Z,68.72
2023-04-02T23:08:57.407Z,69.79
2023-04-02T23:11:27.445Z,69.80
2023-04-02T23:13:57.801Z,68.47
2023-04-02T23:16:27.833Z,70.74
2023-04-02T23:18:56.412Z,70.85
2023-04-02T23:21:26.349Z,71.42
2023-04-02T23:23:54.209Z,70.45
2023-04-02T23:26:23.809Z,70.29
2023-04-02T23:28:52.130Z,70.52
2023-04-02T23:31:22.277Z,70.58
2023-04-02T23:33:50.570Z,70.41
2023-04-02T23:36:21.869Z,71.15
2023-04-02T23:38:54.869Z,70.85
2023-04-02T23:41:24.189Z,72.07
2023-04-02T23:43:52.337Z,71.84
2023-04-02T23:46:20.510Z,71.47
2023-04-02T23:48:51.382Z,71.20
2023-04-02T23:51:19.519Z,71.13
2023-04-02T23:53:47.340Z,71.97
2023-04-02T23:56:16.493Z,70.50
2023-04-02T23:58:44.519Z,71.63
